createdAt,value
2018-12-31T00:00:39.244Z,8.30
2018-12-31T00:01:39.232Z,10.60
2018-12-31T00:02:39.244Z,5.70
2018-12-31T00:03:39.217Z,9.50
2018-12-31T00:04:39.201Z,12.00
2018-12-31T00:05:39.192Z,9.00
2018-12-31T00:06:39.179Z,9.80
2018-12-31T00:07:39.187Z,12.00
2018-12-31T00:08:39.157Z,7.00
2018-12-31T00:09:39.159Z,19.10
2018-12-31T00:10:39.136Z,10.90
2018-12-31T00:11:39.126Z,13.50
2018-12-31T00:12:39.132Z,21.50
2018-12-31T00:13:39.101Z,32.20
2018-12-31T00:14:39.090Z,8.40
2018-12-31T00:15:39.089Z,77.00
2018-12-31T00:16:39.065Z,9.10
2018-12-31T00:17:39.080Z,43.50
2018-12-31T00:18:39.048Z,36.70
2018-12-31T00:19:39.034Z,86.90
2018-12-31T00:20:39.020Z,10.40
2018-12-31T00:21:39.036Z,8.70
2018-12-31T00:22:39.020Z,8.10
2018-12-31T00:23:38.989Z,32.80
2018-12-31T00:24:38.979Z,14.50
2018-12-31T00:25:38.969Z,44.70
2018-12-31T00:26:38.956Z,24.00
2018-12-31T00:27:38.973Z,31.90
2018-12-31T00:28:38.933Z,39.10
2018-12-31T00:29:38.924Z,33.60
2018-12-31T00:30:38.914Z,21.00
2018-12-31T00:31:38.904Z,22.70
2018-12-31T00:32:38.912Z,22.30
2018-12-31T00:33:38.898Z,25.60
2018-12-31T00:34:38.866Z,11.60
2018-12-31T00:35:38.856Z,10.70
2018-12-31T00:36:38.843Z,15.40
2018-12-31T00:37:38.856Z,19.70
2018-12-31T00:38:38.822Z,29.30
2018-12-31T00:39:38.826Z,19.80
2018-12-31T00:40:38.802Z,11.40
2018-12-31T00:41:38.791Z,12.40
2018-12-31T00:42:38.800Z,17.50
2018-12-31T00:43:38.766Z,20.80
2018-12-31T00:44:38.755Z,19.80
2018-12-31T00:45:38.757Z,16.40
2018-12-31T00:46:38.740Z,9.90
2018-12-31T00:47:38.744Z,16.60
2018-12-31T00:48:38.715Z,27.20
2018-12-31T00:49:38.699Z,14.20
2018-12-31T00:50:38.689Z,8.90
2018-12-31T00:51:38.678Z,8.90
2018-12-31T00:52:38.715Z,14.80
2018-12-31T00:53:38.657Z,30.50
2018-12-31T00:54:38.643Z,16.60
2018-12-31T00:55:38.631Z,17.60
2018-12-31T00:56:38.621Z,13.00
2018-12-31T00:57:38.610Z,11.10
2018-12-31T00:58:38.632Z,8.20
2018-12-31T00:59:38.601Z,14.70
2018-12-31T01:00:38.576Z,27.60
2018-12-31T01:01:38.565Z,23.60
2018-12-31T01:02:38.558Z,20.80
2018-12-31T01:03:38.565Z,25.10
2018-12-31T01:04:38.537Z,23.90
2018-12-31T01:05:38.525Z,10.30
2018-12-31T01:06:38.508Z,27.80
2018-12-31T01:07:38.497Z,26.80
2018-12-31T01:08:38.509Z,23.40
2018-12-31T01:09:38.478Z,17.70
2018-12-31T01:10:38.474Z,20.60
2018-12-31T01:11:38.452Z,11.20
2018-12-31T01:12:38.443Z,17.60
2018-12-31T01:13:38.478Z,12.90
2018-12-31T01:14:38.420Z,15.20
2018-12-31T01:15:38.412Z,18.50
2018-12-31T01:16:38.403Z,17.10
2018-12-31T01:17:38.406Z,21.50
2018-12-31T01:18:38.408Z,19.40
2018-12-31T01:19:38.366Z,13.70
2018-12-31T01:20:38.356Z,14.80
2018-12-31T01:21:38.343Z,20.70
2018-12-31T01:22:38.343Z,22.60
2018-12-31T01:23:38.345Z,13.20
2018-12-31T01:24:38.332Z,17.00
2018-12-31T01:25:38.299Z,14.70
2018-12-31T01:26:38.291Z,18.60
2018-12-31T01:27:38.278Z,22.70
2018-12-31T01:28:38.291Z,20.20
2018-12-31T01:29:38.264Z,15.60
2018-12-31T01:30:38.247Z,23.00
2018-12-31T01:31:38.234Z,20.60
2018-12-31T01:32:38.232Z,21.00
2018-12-31T01:33:38.235Z,22.10
2018-12-31T01:34:38.201Z,29.60
2018-12-31T01:35:38.190Z,16.70
2018-12-31T01:36:38.187Z,27.50
2018-12-31T01:37:38.181Z,24.40
2018-12-31T01:38:38.286Z,20.00
2018-12-31T01:39:38.146Z,32.00
2018-12-31T01:40:38.133Z,19.10
2018-12-31T01:41:38.127Z,23.10
2018-12-31T01:42:38.111Z,22.90
2018-12-31T01:43:38.101Z,27.10
2018-12-31T01:44:38.129Z,28.10
2018-12-31T01:45:38.078Z,32.90
2018-12-31T01:46:38.067Z,37.00
2018-12-31T01:47:38.060Z,37.80
2018-12-31T01:48:38.045Z,24.20
2018-12-31T01:49:38.068Z,39.30
2018-12-31T01:50:38.069Z,52.40
2018-12-31T01:51:38.012Z,44.20
2018-12-31T01:52:38.002Z,43.50
2018-12-31T01:53:37.995Z,45.00
2018-12-31T01:54:38.000Z,52.10
2018-12-31T01:55:37.967Z,40.70
2018-12-31T01:56:37.966Z,60.40
2018-12-31T01:57:37.946Z,55.60
2018-12-31T01:58:37.938Z,59.80
2018-12-31T01:59:37.945Z,45.40
2018-12-31T02:00:37.912Z,63.80
2018-12-31T02:01:37.902Z,57.90
2018-12-31T02:02:37.909Z,55.60
2018-12-31T02:03:37.890Z,64.90
2018-12-31T02:04:37.892Z,65.60
2018-12-31T02:05:37.861Z,56.00
2018-12-31T02:06:37.847Z,61.30
2018-12-31T02:07:37.836Z,38.80
2018-12-31T02:08:37.823Z,48.60
2018-12-31T02:09:37.870Z,54.40
2018-12-31T02:10:37.804Z,37.30
2018-12-31T02:11:37.803Z,39.20
2018-12-31T02:12:37.782Z,61.10
2018-12-31T02:13:37.769Z,32.30
2018-12-31T02:14:37.781Z,60.10
2018-12-31T02:15:37.776Z,29.90
2018-12-31T02:16:37.737Z,33.60
2018-12-31T02:17:37.725Z,17.30
2018-12-31T02:18:37.713Z,33.90
2018-12-31T02:19:37.724Z,29.00
2018-12-31T02:20:37.692Z,27.50
2018-12-31T02:21:37.712Z,23.30
2018-12-31T02:22:37.674Z,36.70
2018-12-31T02:23:37.671Z,34.60
2018-12-31T02:24:37.676Z,34.90
2018-12-31T02:25:37.636Z,33.10
2018-12-31T02:26:37.628Z,38.20
2018-12-31T02:27:37.630Z,28.60
2018-12-31T02:28:37.602Z,36.30
2018-12-31T02:29:37.615Z,36.10
2018-12-31T02:30:37.585Z,31.40
2018-12-31T02:31:37.572Z,44.40
2018-12-31T02:32:37.564Z,44.90
2018-12-31T02:33:37.583Z,37.20
2018-12-31T02:34:37.573Z,43.70
2018-12-31T02:35:37.526Z,37.10
2018-12-31T02:36:37.512Z,33.70
2018-12-31T02:37:37.503Z,34.40
2018-12-31T02:38:37.492Z,43.40
2018-12-31T02:39:37.497Z,32.80
2018-12-31T02:40:37.492Z,44.70
2018-12-31T02:41:37.458Z,41.40
2018-12-31T02:42:37.447Z,32.30
2018-12-31T02:43:37.435Z,32.20
2018-12-31T02:44:37.425Z,23.20
2018-12-31T02:45:37.448Z,52.60
2018-12-31T02:46:37.403Z,34.30
2018-12-31T02:47:37.396Z,34.70
2018-12-31T02:48:37.385Z,22.00
2018-12-31T02:49:37.372Z,33.50
2018-12-31T02:50:37.384Z,25.50
2018-12-31T02:51:37.357Z,19.70
2018-12-31T02:52:37.345Z,25.50
2018-12-31T02:53:37.331Z,30.80
2018-12-31T02:54:37.312Z,29.40
2018-12-31T02:55:37.347Z,27.80
2018-12-31T02:56:37.292Z,34.20
2018-12-31T02:57:37.296Z,35.50
2018-12-31T02:58:37.272Z,32.70
2018-12-31T02:59:37.259Z,41.10
2018-12-31T03:00:37.269Z,37.20
2018-12-31T03:01:37.235Z,35.20
2018-12-31T03:02:37.225Z,71.30
2018-12-31T03:03:37.231Z,48.60
2018-12-31T03:04:37.213Z,50.60
2018-12-31T03:05:37.223Z,49.20
2018-12-31T03:06:37.198Z,47.90
2018-12-31T03:07:37.170Z,47.60
2018-12-31T03:08:37.157Z,33.00
2018-12-31T03:09:37.146Z,45.10
2018-12-31T03:10:37.169Z,53.60
2018-12-31T03:11:37.125Z,71.40
2018-12-31T03:12:37.113Z,56.50
2018-12-31T03:13:37.102Z,56.10
2018-12-31T03:14:37.090Z,48.10
2018-12-31T03:15:37.104Z,85.70
2018-12-31T03:16:37.089Z,88.30
2018-12-31T03:17:37.061Z,82.10
2018-12-31T03:18:37.048Z,69.60
2018-12-31T03:19:37.040Z,459.90
2018-12-31T03:20:37.050Z,123.90
2018-12-31T03:21:37.014Z,115.80
2018-12-31T03:22:37.012Z,137.80
2018-12-31T03:23:36.991Z,133.60
2018-12-31T03:24:36.982Z,81.20
2018-12-31T03:25:36.990Z,171.10
2018-12-31T03:26:36.959Z,211.30
2018-12-31T03:27:36.951Z,59.70
2018-12-31T03:28:36.945Z,216.70
2018-12-31T03:29:36.925Z,193.40
2018-12-31T03:30:36.947Z,226.40
2018-12-31T03:31:36.905Z,366.20
2018-12-31T03:32:36.901Z,387.90
2018-12-31T03:33:36.887Z,353.70
2018-12-31T03:34:36.888Z,311.40
2018-12-31T03:35:36.864Z,379.10
2018-12-31T03:36:36.885Z,420.20
2018-12-31T03:37:36.848Z,483.90
2018-12-31T03:38:36.840Z,415.30
2018-12-31T03:39:36.814Z,381.40
2018-12-31T03:40:36.810Z,358.60
2018-12-31T03:41:36.816Z,464.40
2018-12-31T03:42:36.787Z,350.90
2018-12-31T03:43:36.774Z,265.10
2018-12-31T03:44:36.765Z,111.00
2018-12-31T03:45:36.762Z,159.70
2018-12-31T03:46:36.800Z,267.60
2018-12-31T03:47:36.726Z,357.70
2018-12-31T03:48:36.714Z,349.30
2018-12-31T03:49:36.722Z,258.90
2018-12-31T03:50:36.709Z,174.40
2018-12-31T03:51:36.711Z,253.30
2018-12-31T03:52:36.674Z,114.60
2018-12-31T03:53:36.662Z,114.00
2018-12-31T03:54:36.647Z,53.00
2018-12-31T03:55:36.637Z,140.50
2018-12-31T03:56:36.674Z,80.10
2018-12-31T03:57:36.662Z,264.80
2018-12-31T03:58:36.604Z,257.70
2018-12-31T03:59:36.605Z,283.10
2018-12-31T04:00:36.582Z,302.80
2018-12-31T04:01:36.594Z,331.90
2018-12-31T04:02:36.559Z,362.10
2018-12-31T04:03:36.549Z,168.40
2018-12-31T04:04:36.540Z,296.10
2018-12-31T04:05:36.542Z,426.40
2018-12-31T04:06:36.554Z,441.10
2018-12-31T04:07:36.526Z,269.60
2018-12-31T04:08:36.495Z,194.00
2018-12-31T04:09:36.507Z,324.30
2018-12-31T04:10:36.485Z,346.20
2018-12-31T04:11:36.491Z,299.30
2018-12-31T04:12:36.456Z,341.20
2018-12-31T04:13:36.445Z,394.30
2018-12-31T04:14:36.432Z,383.70
2018-12-31T04:15:36.439Z,375.30
2018-12-31T04:16:36.431Z,430.60
2018-12-31T04:17:36.404Z,493.10
2018-12-31T04:18:36.389Z,487.50
2018-12-31T04:19:36.397Z,427.60
2018-12-31T04:20:36.369Z,429.20
2018-12-31T04:21:36.388Z,523.20
2018-12-31T04:22:36.347Z,386.40
2018-12-31T04:23:36.411Z,424.20
2018-12-31T04:24:36.327Z,481.60
2018-12-31T04:25:36.337Z,396.80
2018-12-31T04:26:36.322Z,497.80
2018-12-31T04:27:36.304Z,553.70
2018-12-31T04:28:36.284Z,464.10
2018-12-31T04:29:36.265Z,629.10
2018-12-31T04:30:36.265Z,487.30
2018-12-31T04:31:36.236Z,459.30
2018-12-31T04:32:36.253Z,500.70
2018-12-31T04:33:36.219Z,458.20
2018-12-31T04:34:36.211Z,412.20
2018-12-31T04:35:36.203Z,552.90
2018-12-31T04:36:36.211Z,463.70
2018-12-31T04:37:36.199Z,480.50
2018-12-31T04:38:36.159Z,627.70
2018-12-31T04:39:36.158Z,420.50
2018-12-31T04:40:36.140Z,423.00
2018-12-31T04:41:36.132Z,413.60
2018-12-31T04:42:36.148Z,416.90
2018-12-31T04:43:36.135Z,484.80
2018-12-31T04:44:36.117Z,376.90
2018-12-31T04:45:36.089Z,476.00
2018-12-31T04:46:36.076Z,376.60
2018-12-31T04:47:36.083Z,299.60
2018-12-31T04:48:36.067Z,178.40
2018-12-31T04:49:36.037Z,261.10
2018-12-31T04:50:36.034Z,106.80
2018-12-31T04:51:36.013Z,103.30
2018-12-31T04:52:36.026Z,257.60
2018-12-31T04:53:35.995Z,101.40
2018-12-31T04:54:35.995Z,258.10
2018-12-31T04:55:44.072Z,216.00
2018-12-31T04:56:36.958Z,334.60
2018-12-31T04:57:36.048Z,287.50
2018-12-31T04:58:35.950Z,237.90
2018-12-31T04:59:35.937Z,298.80
2018-12-31T05:00:35.921Z,228.10
2018-12-31T05:01:35.903Z,220.10
2018-12-31T05:02:35.931Z,197.00
2018-12-31T05:03:35.880Z,227.10
2018-12-31T05:04:35.869Z,245.60
2018-12-31T05:05:35.857Z,215.20
2018-12-31T05:06:35.864Z,236.20
2018-12-31T05:07:35.879Z,146.90
2018-12-31T05:08:35.846Z,184.30
2018-12-31T05:09:35.820Z,154.70
2018-12-31T05:10:35.806Z,86.20
2018-12-31T05:11:35.820Z,210.00
2018-12-31T05:12:35.817Z,140.30
2018-12-31T05:13:35.775Z,173.70
2018-12-31T05:14:35.767Z,171.30
2018-12-31T05:15:35.753Z,146.10
2018-12-31T05:16:35.752Z,173.60
2018-12-31T05:17:35.761Z,121.30
2018-12-31T05:18:35.731Z,159.00
2018-12-31T05:19:35.737Z,186.90
2018-12-31T05:20:35.723Z,211.70
2018-12-31T05:21:35.716Z,168.60
2018-12-31T05:22:35.679Z,231.10
2018-12-31T05:23:35.681Z,265.90
2018-12-31T05:24:35.664Z,280.10
2018-12-31T05:25:35.644Z,234.30
2018-12-31T05:26:35.633Z,280.30
2018-12-31T05:27:35.614Z,310.20
2018-12-31T05:28:35.628Z,260.10
2018-12-31T05:29:35.616Z,288.90
2018-12-31T05:30:35.583Z,393.90
2018-12-31T05:31:35.575Z,318.50
2018-12-31T05:32:35.576Z,244.70
2018-12-31T05:33:35.571Z,391.50
2018-12-31T05:34:35.556Z,331.00
2018-12-31T05:35:35.536Z,330.50
2018-12-31T05:36:35.518Z,460.00
2018-12-31T05:37:35.512Z,547.60
2018-12-31T05:38:35.523Z,469.30
2018-12-31T05:39:35.483Z,622.70
2018-12-31T05:40:35.546Z,474.40
2018-12-31T05:41:35.479Z,570.80
2018-12-31T05:42:35.448Z,430.00
2018-12-31T05:43:35.481Z,257.50
2018-12-31T05:44:35.437Z,605.50
2018-12-31T05:45:35.429Z,566.90
2018-12-31T05:46:35.419Z,650.80
2018-12-31T05:47:35.395Z,616.60
2018-12-31T05:48:35.414Z,592.30
2018-12-31T05:49:35.386Z,571.90
2018-12-31T05:50:35.370Z,463.40
2018-12-31T05:51:35.377Z,349.00
2018-12-31T05:52:35.355Z,605.40
2018-12-31T05:53:35.376Z,534.50
2018-12-31T05:54:35.322Z,395.90
2018-12-31T05:55:35.310Z,398.90
2018-12-31T05:56:35.304Z,651.30
2018-12-31T05:57:35.335Z,606.70
2018-12-31T05:58:35.316Z,531.80
2018-12-31T05:59:35.257Z,576.80
2018-12-31T06:00:35.251Z,618.80
2018-12-31T06:01:35.359Z,526.40
2018-12-31T06:02:35.269Z,473.80
2018-12-31T06:03:35.240Z,589.10
2018-12-31T06:04:35.203Z,561.40
2018-12-31T06:05:35.211Z,513.10
2018-12-31T06:06:35.223Z,584.90
2018-12-31T06:07:35.194Z,459.20
2018-12-31T06:08:35.189Z,582.20
2018-12-31T06:09:35.154Z,657.10
2018-12-31T06:10:35.146Z,537.10
2018-12-31T06:11:35.128Z,645.20
2018-12-31T06:12:35.122Z,524.40
2018-12-31T06:13:35.103Z,430.60
2018-12-31T06:14:35.121Z,688.90
2018-12-31T06:15:35.083Z,619.70
2018-12-31T06:16:35.070Z,427.90
2018-12-31T06:17:35.057Z,657.70
2018-12-31T06:18:35.051Z,664.90
2018-12-31T06:19:35.077Z,643.60
2018-12-31T06:20:35.026Z,676.20
2018-12-31T06:21:35.014Z,676.70
2018-12-31T06:22:35.001Z,512.40
2018-12-31T06:23:35.011Z,400.40
2018-12-31T06:24:35.008Z,693.20
2018-12-31T06:25:34.981Z,728.60
2018-12-31T06:26:34.957Z,553.00
2018-12-31T06:27:34.947Z,650.60
2018-12-31T06:28:34.933Z,611.40
2018-12-31T06:29:34.953Z,560.20
2018-12-31T06:30:34.915Z,646.70
2018-12-31T06:31:34.905Z,565.60
2018-12-31T06:32:34.889Z,529.60
2018-12-31T06:33:34.880Z,288.70
2018-12-31T06:34:34.908Z,574.00
2018-12-31T06:35:34.860Z,641.20
2018-12-31T06:36:34.882Z,618.90
2018-12-31T06:37:34.832Z,618.00
2018-12-31T06:38:34.864Z,678.90
2018-12-31T06:39:34.840Z,488.00
2018-12-31T06:40:34.805Z,569.00
2018-12-31T06:41:34.791Z,529.80
2018-12-31T06:42:34.778Z,538.10
2018-12-31T06:43:34.782Z,513.10
2018-12-31T06:44:34.780Z,569.40
2018-12-31T06:45:34.748Z,501.70
2018-12-31T06:46:34.773Z,584.80
2018-12-31T06:47:34.727Z,533.30
2018-12-31T06:48:34.715Z,536.80
2018-12-31T06:49:34.736Z,579.70
2018-12-31T06:50:34.686Z,516.20
2018-12-31T06:51:34.681Z,461.70
2018-12-31T06:52:34.665Z,619.00
2018-12-31T06:53:34.662Z,623.30
2018-12-31T06:54:34.674Z,887.90
2018-12-31T06:55:34.651Z,619.00
2018-12-31T06:56:34.622Z,548.40
2018-12-31T06:57:34.616Z,580.30
2018-12-31T06:58:34.595Z,496.80
2018-12-31T06:59:34.633Z,518.30
2018-12-31T07:00:34.589Z,522.70
2018-12-31T07:01:34.569Z,723.10
2018-12-31T07:02:34.556Z,538.10
2018-12-31T07:03:34.542Z,508.70
2018-12-31T07:04:34.533Z,495.10
2018-12-31T07:05:34.606Z,541.50
2018-12-31T07:06:34.506Z,339.50
2018-12-31T07:07:34.497Z,327.50
2018-12-31T07:08:34.525Z,472.60
2018-12-31T07:09:34.510Z,599.70
2018-12-31T07:10:34.510Z,452.20
2018-12-31T07:11:34.454Z,570.40
2018-12-31T07:12:34.439Z,277.00
2018-12-31T07:13:34.428Z,577.70
2018-12-31T07:14:34.424Z,199.70
2018-12-31T07:15:34.459Z,299.60
2018-12-31T07:16:34.397Z,563.80
2018-12-31T07:17:34.401Z,538.10
2018-12-31T07:18:34.383Z,482.40
2018-12-31T07:19:34.363Z,543.20
2018-12-31T07:20:34.378Z,421.60
2018-12-31T07:21:34.341Z,460.80
2018-12-31T07:22:34.329Z,308.70
2018-12-31T07:23:34.320Z,394.60
2018-12-31T07:24:34.319Z,299.10
2018-12-31T07:25:34.320Z,262.20
2018-12-31T07:26:34.323Z,162.00
2018-12-31T07:27:34.278Z,140.10
2018-12-31T07:28:34.272Z,139.10
2018-12-31T07:29:34.253Z,136.20
2018-12-31T07:30:34.279Z,115.10
2018-12-31T07:31:34.230Z,124.30
2018-12-31T07:32:34.217Z,140.10
2018-12-31T07:33:34.210Z,145.60
2018-12-31T07:34:34.225Z,126.60
2018-12-31T07:35:34.235Z,106.50
2018-12-31T07:36:34.177Z,124.50
2018-12-31T07:37:34.184Z,142.60
2018-12-31T07:38:34.169Z,127.60
2018-12-31T07:39:34.141Z,120.80
2018-12-31T07:40:34.154Z,130.90
2018-12-31T07:41:34.119Z,141.00
2018-12-31T07:42:34.113Z,116.50
2018-12-31T07:43:34.109Z,105.70
2018-12-31T07:44:34.098Z,129.30
2018-12-31T07:45:34.109Z,120.20
2018-12-31T07:46:34.065Z,90.60
2018-12-31T07:47:34.053Z,115.30
2018-12-31T07:48:34.041Z,101.00
2018-12-31T07:49:34.043Z,100.10
2018-12-31T07:50:34.053Z,94.80
2018-12-31T07:51:34.008Z,94.20
2018-12-31T07:52:34.006Z,94.40
2018-12-31T07:53:34.001Z,94.20
2018-12-31T07:54:33.975Z,96.50
2018-12-31T07:55:34.018Z,88.00
2018-12-31T07:56:33.951Z,91.00
2018-12-31T07:57:33.948Z,91.40
2018-12-31T07:58:33.930Z,100.70
2018-12-31T07:59:33.950Z,85.10
2018-12-31T08:00:33.916Z,90.70
2018-12-31T08:01:33.919Z,89.50
2018-12-31T08:02:33.888Z,104.30
2018-12-31T08:03:33.885Z,92.30
2018-12-31T08:04:33.864Z,94.20
2018-12-31T08:05:33.867Z,89.30
2018-12-31T08:06:33.867Z,102.60
2018-12-31T08:07:33.845Z,93.30
2018-12-31T08:08:33.825Z,95.90
2018-12-31T08:09:33.811Z,88.40
2018-12-31T08:10:33.798Z,99.80
2018-12-31T08:11:33.814Z,101.30
2018-12-31T08:12:33.780Z,94.40
2018-12-31T08:13:33.767Z,96.60
2018-12-31T08:14:33.756Z,96.00
2018-12-31T08:15:33.744Z,95.00
2018-12-31T08:16:33.783Z,83.50
2018-12-31T08:17:33.739Z,93.40
2018-12-31T08:18:33.719Z,92.70
2018-12-31T08:19:33.696Z,94.20
2018-12-31T08:20:33.685Z,93.40
2018-12-31T08:21:33.710Z,96.60
2018-12-31T08:22:33.756Z,95.20
2018-12-31T08:23:33.650Z,85.10
2018-12-31T08:24:33.642Z,90.40
2018-12-31T08:25:33.645Z,86.50
2018-12-31T08:26:33.642Z,90.30
2018-12-31T08:27:33.608Z,90.80
2018-12-31T08:28:33.616Z,90.70
2018-12-31T08:29:33.590Z,94.80
2018-12-31T08:30:33.589Z,87.80
2018-12-31T08:31:33.606Z,86.20
2018-12-31T08:32:33.553Z,85.60
2018-12-31T08:33:33.545Z,86.00
2018-12-31T08:34:33.529Z,83.00
2018-12-31T08:35:33.519Z,85.20
2018-12-31T08:36:33.534Z,90.40
2018-12-31T08:37:33.498Z,78.50
2018-12-31T08:38:33.489Z,88.90
2018-12-31T08:39:33.475Z,82.00
2018-12-31T08:40:33.479Z,71.70
2018-12-31T08:41:33.480Z,75.80
2018-12-31T08:42:33.451Z,73.10
2018-12-31T08:43:33.434Z,79.00
2018-12-31T08:44:33.422Z,74.00
2018-12-31T08:45:33.411Z,72.30
2018-12-31T08:46:33.421Z,77.80
2018-12-31T08:47:33.390Z,77.20
2018-12-31T08:48:33.397Z,77.30
2018-12-31T08:49:33.368Z,73.80
2018-12-31T08:50:33.354Z,71.70
2018-12-31T08:51:33.378Z,69.70
2018-12-31T08:52:33.332Z,71.00
2018-12-31T08:53:33.324Z,73.20
2018-12-31T08:54:33.313Z,82.50
2018-12-31T08:55:33.303Z,70.60
2018-12-31T08:56:33.289Z,67.80
2018-12-31T08:57:33.309Z,66.50
2018-12-31T08:58:33.268Z,69.00
2018-12-31T08:59:33.256Z,68.90
2018-12-31T09:00:33.243Z,69.70
2018-12-31T09:01:33.257Z,63.60
2018-12-31T09:02:33.262Z,70.80
2018-12-31T09:03:33.212Z,77.60
2018-12-31T09:04:33.228Z,75.90
2018-12-31T09:05:33.197Z,71.50
2018-12-31T09:06:33.178Z,75.60
2018-12-31T09:07:33.190Z,69.70
2018-12-31T09:08:34.774Z,72.40
2018-12-31T09:09:33.152Z,73.80
2018-12-31T09:10:33.134Z,73.40
2018-12-31T09:11:33.129Z,71.80
2018-12-31T09:12:33.143Z,72.10
2018-12-31T09:13:33.133Z,70.60
2018-12-31T09:14:33.095Z,82.00
2018-12-31T09:15:33.080Z,79.00
2018-12-31T09:16:33.076Z,75.70
2018-12-31T09:17:33.087Z,68.90
2018-12-31T09:18:33.058Z,71.90
2018-12-31T09:19:33.041Z,66.80
2018-12-31T09:20:33.024Z,66.80
2018-12-31T09:21:33.013Z,67.60
2018-12-31T09:22:33.034Z,70.90
2018-12-31T09:23:32.999Z,67.50
2018-12-31T09:24:32.982Z,69.90
2018-12-31T09:25:32.976Z,64.40
2018-12-31T09:26:32.965Z,68.60
2018-12-31T09:27:33.000Z,57.70
2018-12-31T09:28:32.935Z,65.10
2018-12-31T09:29:32.928Z,68.10
2018-12-31T09:30:32.922Z,65.20
2018-12-31T09:31:32.903Z,71.70
2018-12-31T09:32:32.922Z,57.60
2018-12-31T09:33:32.896Z,60.10
2018-12-31T09:34:32.869Z,61.90
2018-12-31T09:35:32.860Z,71.00
2018-12-31T09:36:32.847Z,63.30
2018-12-31T09:37:32.865Z,62.40
2018-12-31T09:38:32.841Z,61.60
2018-12-31T09:39:32.813Z,66.60
2018-12-31T09:40:32.809Z,63.40
2018-12-31T09:41:32.794Z,64.40
2018-12-31T09:42:32.817Z,69.80
2018-12-31T09:43:32.775Z,69.80
2018-12-31T09:44:32.788Z,76.00
2018-12-31T09:45:32.762Z,66.10
2018-12-31T09:46:32.746Z,67.40
2018-12-31T09:47:33.851Z,74.50
2018-12-31T09:48:32.746Z,65.00
2018-12-31T09:49:32.726Z,62.70
2018-12-31T09:50:32.693Z,69.00
2018-12-31T09:51:32.700Z,80.00
2018-12-31T09:52:32.677Z,76.90
2018-12-31T09:53:32.683Z,84.60
2018-12-31T09:54:32.668Z,67.40
2018-12-31T09:55:32.638Z,76.30
2018-12-31T09:56:32.637Z,77.10
2018-12-31T09:57:32.616Z,82.50
2018-12-31T09:58:32.647Z,72.10
2018-12-31T09:59:32.607Z,92.60
2018-12-31T10:00:32.590Z,73.00
2018-12-31T10:01:32.576Z,89.50
2018-12-31T10:02:32.580Z,85.70
2018-12-31T10:03:32.577Z,86.60
2018-12-31T10:04:32.545Z,98.30
2018-12-31T10:05:32.528Z,99.70
2018-12-31T10:06:32.536Z,96.60
2018-12-31T10:07:32.516Z,97.00
2018-12-31T10:08:32.531Z,105.60
2018-12-31T10:09:32.482Z,90.60
2018-12-31T10:10:32.476Z,101.50
2018-12-31T10:11:32.460Z,101.60
2018-12-31T10:12:32.453Z,104.40
2018-12-31T10:13:32.462Z,109.50
2018-12-31T10:14:32.432Z,103.70
2018-12-31T10:15:32.419Z,117.30
2018-12-31T10:16:32.406Z,103.40
2018-12-31T10:17:32.394Z,103.40
2018-12-31T10:18:32.410Z,88.30
2018-12-31T10:19:32.375Z,84.20
2018-12-31T10:20:32.368Z,88.90
2018-12-31T10:21:32.359Z,86.40
2018-12-31T10:22:32.348Z,81.00
2018-12-31T10:23:32.378Z,88.90
2018-12-31T10:24:32.317Z,91.00
2018-12-31T10:25:32.319Z,95.40
2018-12-31T10:26:32.310Z,89.30
2018-12-31T10:27:32.300Z,88.70
2018-12-31T10:28:32.300Z,89.10
2018-12-31T10:29:35.934Z,83.30
2018-12-31T10:30:32.250Z,88.20
2018-12-31T10:31:32.241Z,87.50
2018-12-31T10:32:32.231Z,87.00
2018-12-31T10:33:32.245Z,86.00
2018-12-31T10:34:32.208Z,93.20
2018-12-31T10:35:32.196Z,83.20
2018-12-31T10:36:32.182Z,98.90
2018-12-31T10:37:32.172Z,85.80
2018-12-31T10:38:32.188Z,98.80
2018-12-31T10:39:32.166Z,84.70
2018-12-31T10:40:32.139Z,93.80
2018-12-31T10:41:32.129Z,92.10
2018-12-31T10:42:32.135Z,90.60
2018-12-31T10:43:32.128Z,92.80
2018-12-31T10:44:32.094Z,93.70
2018-12-31T10:45:32.098Z,110.40
2018-12-31T10:46:32.078Z,99.20
2018-12-31T10:47:32.061Z,113.90
2018-12-31T10:48:32.111Z,102.70
2018-12-31T10:49:32.043Z,93.90
2018-12-31T10:50:32.062Z,109.10
2018-12-31T10:51:32.029Z,106.40
2018-12-31T10:52:32.037Z,100.10
2018-12-31T10:53:32.023Z,100.90
2018-12-31T10:54:32.008Z,98.90
2018-12-31T10:55:31.980Z,95.00
2018-12-31T10:56:31.970Z,106.60
2018-12-31T10:57:31.959Z,97.90
2018-12-31T10:58:31.955Z,103.60
2018-12-31T10:59:31.976Z,104.70
2018-12-31T11:00:31.918Z,103.20
2018-12-31T11:01:31.913Z,101.10
2018-12-31T11:02:31.894Z,115.20
2018-12-31T11:03:31.883Z,99.00
2018-12-31T11:04:31.897Z,99.30
2018-12-31T11:05:31.862Z,105.30
2018-12-31T11:06:31.851Z,101.20
2018-12-31T11:07:31.839Z,107.90
2018-12-31T11:08:31.843Z,96.00
2018-12-31T11:09:31.838Z,104.50
2018-12-31T11:10:31.806Z,98.90
2018-12-31T11:11:31.799Z,111.50
2018-12-31T11:12:31.784Z,104.50
2018-12-31T11:13:31.773Z,111.40
2018-12-31T11:14:31.786Z,111.80
2018-12-31T11:15:31.752Z,114.90
2018-12-31T11:16:31.738Z,114.00
2018-12-31T11:17:31.727Z,126.40
2018-12-31T11:18:31.716Z,111.90
2018-12-31T11:19:33.439Z,119.10
2018-12-31T11:20:31.697Z,118.90
2018-12-31T11:21:31.690Z,119.60
2018-12-31T11:22:31.671Z,125.90
2018-12-31T11:23:31.661Z,127.00
2018-12-31T11:24:31.679Z,114.70
2018-12-31T11:25:31.638Z,132.00
2018-12-31T11:26:31.626Z,135.50
2018-12-31T11:27:31.620Z,123.30
2018-12-31T11:28:31.608Z,125.90
2018-12-31T11:29:31.620Z,122.30
2018-12-31T11:30:31.590Z,118.80
2018-12-31T11:31:31.573Z,128.80
2018-12-31T11:32:31.579Z,110.40
2018-12-31T11:33:31.555Z,125.20
2018-12-31T11:34:31.571Z,126.20
2018-12-31T11:35:31.547Z,133.20
2018-12-31T11:36:32.580Z,130.50
2018-12-31T11:37:34.811Z,133.40
2018-12-31T11:38:31.504Z,127.00
2018-12-31T11:39:31.537Z,114.50
2018-12-31T11:40:31.478Z,120.80
2018-12-31T11:41:31.468Z,130.90
2018-12-31T11:42:31.450Z,125.70
2018-12-31T11:43:31.453Z,132.80
2018-12-31T11:44:31.447Z,124.80
2018-12-31T11:45:31.460Z,118.00
2018-12-31T11:46:31.412Z,129.40
2018-12-31T11:47:31.410Z,133.80
2018-12-31T11:48:31.385Z,139.30
2018-12-31T11:49:31.457Z,136.50
2018-12-31T11:50:31.389Z,142.90
2018-12-31T11:51:31.377Z,153.00
2018-12-31T11:52:31.393Z,158.20
2018-12-31T11:53:31.333Z,128.10
2018-12-31T11:54:31.329Z,120.10
2018-12-31T11:55:31.346Z,113.70
2018-12-31T11:56:31.324Z,106.60
2018-12-31T11:57:31.320Z,124.30
2018-12-31T11:58:31.292Z,112.70
2018-12-31T11:59:31.263Z,110.20
2018-12-31T12:00:31.296Z,110.30
2018-12-31T12:01:31.243Z,120.20
2018-12-31T12:02:31.228Z,114.50
2018-12-31T12:03:31.220Z,109.50
2018-12-31T12:04:31.205Z,122.60
2018-12-31T12:05:31.223Z,132.70
2018-12-31T12:06:31.197Z,128.80
2018-12-31T12:07:31.171Z,121.60
2018-12-31T12:08:31.161Z,119.20
2018-12-31T12:09:31.156Z,109.90
2018-12-31T12:10:31.167Z,127.60
2018-12-31T12:11:31.134Z,128.00
2018-12-31T12:12:31.119Z,129.20
2018-12-31T12:13:31.108Z,122.90
2018-12-31T12:14:31.098Z,119.40
2018-12-31T12:15:31.109Z,115.20
2018-12-31T12:16:31.072Z,120.30
2018-12-31T12:17:31.061Z,118.80
2018-12-31T12:18:31.052Z,123.00
2018-12-31T12:19:31.061Z,116.50
2018-12-31T12:20:31.068Z,114.10
2018-12-31T12:21:31.033Z,126.00
2018-12-31T12:22:31.007Z,130.60
2018-12-31T12:23:31.001Z,124.30
2018-12-31T12:24:31.000Z,126.10
2018-12-31T12:25:31.000Z,123.00
2018-12-31T12:26:30.971Z,120.90
2018-12-31T12:27:30.952Z,115.70
2018-12-31T12:28:30.946Z,127.00
2018-12-31T12:29:30.929Z,125.40
2018-12-31T12:30:30.972Z,127.20
2018-12-31T12:31:30.906Z,130.60
2018-12-31T12:32:30.898Z,128.10
2018-12-31T12:33:30.886Z,109.10
2018-12-31T12:34:30.881Z,103.80
2018-12-31T12:35:30.862Z,111.60
2018-12-31T12:36:30.893Z,116.20
2018-12-31T12:37:30.843Z,129.50
2018-12-31T12:38:30.830Z,122.30
2018-12-31T12:39:30.847Z,114.30
2018-12-31T12:40:30.812Z,113.90